sensor_id;sensor_type;location;lat;lon;timestamp;pressure;altitude;pressure_sealevel;temperature;humidity
80410;BME280;69746;45.596;10.154;2023-06-10T00:02:21;99116.94;;;25.02;54.29
80410;BME280;69746;45.596;10.154;2023-06-10T00:04:47;99119.72;;;25.02;54.23
80410;BME280;69746;45.596;10.154;2023-06-10T00:07:13;99114.94;;;25.03;54.29
80410;BME280;69746;45.596;10.154;2023-06-10T00:09:39;99118.91;;;25.02;54.10
80410;BME280;69746;45.596;10.154;2023-06-10T00:12:07;99114.94;;;25.03;54.46
80410;BME280;69746;45.596;10.154;2023-06-10T00:14:33;99118.09;;;25.01;54.13
80410;BME280;69746;45.596;10.154;2023-06-10T00:16:59;99120.06;;;25.01;54.35
80410;BME280;69746;45.596;10.154;2023-06-10T00:19:25;99114.50;;;25.01;54.41
80410;BME280;69746;45.596;10.154;2023-06-10T00:21:51;99113.31;;;25.02;54.21
80410;BME280;69746;45.596;10.154;2023-06-10T00:24:18;99112.50;;;25.01;54.34
80410;BME280;69746;45.596;10.154;2023-06-10T00:26:44;99111.69;;;25.01;54.31
80410;BME280;69746;45.596;10.154;2023-06-10T00:29:10;99118.09;;;25.01;54.42
80410;BME280;69746;45.596;10.154;2023-06-10T00:31:39;99103.34;;;25.01;54.18
80410;BME280;69746;45.596;10.154;2023-06-10T00:34:04;99104.78;;;24.98;54.46
80410;BME280;69746;45.596;10.154;2023-06-10T00:36:30;99113.31;;;25.02;54.13
80410;BME280;69746;45.596;10.154;2023-06-10T00:38:59;99119.72;;;25.02;54.15
80410;BME280;69746;45.596;10.154;2023-06-10T00:41:25;99117.75;;;25.03;54.42
80410;BME280;69746;45.596;10.154;2023-06-10T00:43:53;99107.56;;;24.98;54.06
80410;BME280;69746;45.596;10.154;2023-06-10T00:46:21;99120.53;;;25.03;54.28
80410;BME280;69746;45.596;10.154;2023-06-10T00:48:47;99118.91;;;25.02;54.15
80410;BME280;69746;45.596;10.154;2023-06-10T00:51:13;99118.91;;;25.02;54.20
80410;BME280;69746;45.596;10.154;2023-06-10T00:53:42;99116.13;;;25.02;54.40
80410;BME280;69746;45.596;10.154;2023-06-10T00:56:08;99116.94;;;25.02;54.11
80410;BME280;69746;45.596;10.154;2023-06-10T00:58:35;99113.63;;;25.00;54.43
80410;BME280;69746;45.596;10.154;2023-06-10T01:01:01;99108.91;;;25.01;54.30
80410;BME280;69746;45.596;10.154;2023-06-10T01:03:27;99112.50;;;25.01;54.42
80410;BME280;69746;45.596;10.154;2023-06-10T01:06:18;99103.78;;;25.03;54.40
80410;BME280;69746;45.596;10.154;2023-06-10T01:09:02;99101.00;;;25.03;54.38
80410;BME280;69746;45.596;10.154;2023-06-10T01:11:34;99107.75;;;25.02;54.32
80410;BME280;69746;45.596;10.154;2023-06-10T01:14:03;99101.34;;;25.01;54.24
80410;BME280;69746;45.596;10.154;2023-06-10T01:16:30;99106.13;;;25.01;54.12
80410;BME280;69746;45.596;10.154;2023-06-10T01:18:56;99104.97;;;25.02;54.30
80410;BME280;69746;45.596;10.154;2023-06-10T01:21:23;99102.16;;;25.02;54.26
80410;BME280;69746;45.596;10.154;2023-06-10T01:23:52;99106.94;;;25.01;54.12
80410;BME280;69746;45.596;10.154;2023-06-10T01:26:22;99102.16;;;25.02;54.40
80410;BME280;69746;45.596;10.154;2023-06-10T01:29:00;99102.97;;;25.02;54.39
80410;BME280;69746;45.596;10.154;2023-06-10T01:34:12;99092.97;;;25.01;54.39
80410;BME280;69746;45.596;10.154;2023-06-10T01:36:40;99096.59;;;25.02;54.42
80410;BME280;69746;45.596;10.154;2023-06-10T01:39:08;99099.38;;;25.02;54.17
80410;BME280;69746;45.596;10.154;2023-06-10T01:41:36;99092.97;;;25.01;54.30
80410;BME280;69746;45.596;10.154;2023-06-10T01:44:06;99098.56;;;25.01;54.33
80410;BME280;69746;45.596;10.154;2023-06-10T01:46:32;99090.19;;;25.01;54.06
80410;BME280;69746;45.596;10.154;2023-06-10T01:48:58;99080.84;;;24.97;54.17
80410;BME280;69746;45.596;10.154;2023-06-10T01:51:24;99089.03;;;25.02;54.32
80410;BME280;69746;45.596;10.154;2023-06-10T01:53:50;99091.00;;;25.02;54.28
80410;BME280;69746;45.596;10.154;2023-06-10T01:56:15;99095.78;;;25.01;54.46
80410;BME280;69746;45.596;10.154;2023-06-10T01:58:45;99088.22;;;25.02;54.17
80410;BME280;69746;45.596;10.154;2023-06-10T02:01:14;99084.59;;;25.01;54.13
80410;BME280;69746;45.596;10.154;2023-06-10T02:03:40;99080.47;;;24.98;54.23
80410;BME280;69746;45.596;10.154;2023-06-10T02:06:06;99067.88;;;25.01;54.40
80410;BME280;69746;45.596;10.154;2023-06-10T02:08:32;99077.88;;;25.02;54.35
80410;BME280;69746;45.596;10.154;2023-06-10T02:10:58;99077.06;;;25.02;54.11
80410;BME280;69746;45.596;10.154;2023-06-10T02:13:24;99077.06;;;25.02;54.41
80410;BME280;69746;45.596;10.154;2023-06-10T02:15:50;99068.69;;;25.02;54.28
80410;BME280;69746;45.596;10.154;2023-06-10T02:18:16;99069.84;;;25.01;54.33
80410;BME280;69746;45.596;10.154;2023-06-10T02:20:46;99073.44;;;25.01;54.35
80410;BME280;69746;45.596;10.154;2023-06-10T02:23:12;99074.25;;;25.02;54.15
80410;BME280;69746;45.596;10.154;2023-06-10T02:25:38;99065.06;;;25.01;54.17
80410;BME280;69746;45.596;10.154;2023-06-10T02:28:04;99065.88;;;25.02;53.98
80410;BME280;69746;45.596;10.154;2023-06-10T02:30:30;99073.44;;;25.01;54.36
80410;BME280;69746;45.596;10.154;2023-06-10T02:32:56;99075.06;;;25.02;54.24
80410;BME280;69746;45.596;10.154;2023-06-10T02:35:22;99069.50;;;25.02;54.15
80410;BME280;69746;45.596;10.154;2023-06-10T02:37:49;99079.03;;;25.01;54.29
80410;BME280;69746;45.596;10.154;2023-06-10T02:40:16;99071.47;;;25.02;54.30
80410;BME280;69746;45.596;10.154;2023-06-10T02:42:42;99080.66;;;25.02;54.21
80410;BME280;69746;45.596;10.154;2023-06-10T02:45:08;99074.25;;;25.02;54.43
80410;BME280;69746;45.596;10.154;2023-06-10T02:47:34;99087.41;;;25.01;54.48
80410;BME280;69746;45.596;10.154;2023-06-10T02:50:00;99080.66;;;25.02;54.11
80410;BME280;69746;45.596;10.154;2023-06-10T02:52:25;99079.84;;;25.02;54.37
80410;BME280;69746;45.596;10.154;2023-06-10T02:54:51;99070.66;;;25.01;54.39
80410;BME280;69746;45.596;10.154;2023-06-10T02:57:17;99075.88;;;25.03;54.11
80410;BME280;69746;45.596;10.154;2023-06-10T02:59:43;99081.47;;;25.03;54.17
80410;BME280;69746;45.596;10.154;2023-06-10T03:02:08;99083.78;;;25.01;54.14
80410;BME280;69746;45.596;10.154;2023-06-10T03:04:34;99087.41;;;25.01;54.22
80410;BME280;69746;45.596;10.154;2023-06-10T03:07:03;99086.25;;;25.02;54.32
80410;BME280;69746;45.596;10.154;2023-06-10T03:09:33;99087.03;;;25.03;54.37
80410;BME280;69746;45.596;10.154;2023-06-10T03:11:58;99088.22;;;25.02;54.07
80410;BME280;69746;45.596;10.154;2023-06-10T03:14:26;99083.44;;;25.02;54.38
80410;BME280;69746;45.596;10.154;2023-06-10T03:16:51;99085.41;;;25.02;54.14
80410;BME280;69746;45.596;10.154;2023-06-10T03:19:17;99085.41;;;25.02;54.23
80410;BME280;69746;45.596;10.154;2023-06-10T03:21:44;99097.41;;;25.02;54.06
80410;BME280;69746;45.596;10.154;2023-06-10T03:24:10;99087.03;;;25.03;54.19
80410;BME280;69746;45.596;10.154;2023-06-10T03:26:36;99083.44;;;25.02;54.28
80410;BME280;69746;45.596;10.154;2023-06-10T03:29:02;99091.81;;;25.02;54.07
80410;BME280;69746;45.596;10.154;2023-06-10T03:31:28;99085.41;;;25.02;54.31
80410;BME280;69746;45.596;10.154;2023-06-10T03:33:55;99092.63;;;25.03;54.21
80410;BME280;69746;45.596;10.154;2023-06-10T03:36:21;99095.41;;;25.03;54.19
80410;BME280;69746;45.596;10.154;2023-06-10T03:38:46;99100.19;;;25.02;54.22
80410;BME280;69746;45.596;10.154;2023-06-10T03:41:12;99102.63;;;25.04;54.41
80410;BME280;69746;45.596;10.154;2023-06-10T03:43:38;99093.28;;;24.99;54.10
80410;BME280;69746;45.596;10.154;2023-06-10T03:46:06;99094.59;;;25.02;54.17
80410;BME280;69746;45.596;10.154;2023-06-10T03:48:31;99095.41;;;25.03;54.33
80410;BME280;69746;45.596;10.154;2023-06-10T03:50:58;99088.22;;;25.02;54.19
80410;BME280;69746;45.596;10.154;2023-06-10T03:53:24;99090.47;;;24.99;54.10
80410;BME280;69746;45.596;10.154;2023-06-10T03:55:50;99087.03;;;25.03;54.24
80410;BME280;69746;45.596;10.154;2023-06-10T03:58:15;99093.44;;;25.03;54.27
80410;BME280;69746;45.596;10.154;2023-06-10T04:00:43;99097.41;;;25.02;54.40
80410;BME280;69746;45.596;10.154;2023-06-10T04:03:10;99101.34;;;25.01;54.25
80410;BME280;69746;45.596;10.154;2023-06-10T04:05:40;99102.16;;;25.02;54.24
80410;BME280;69746;45.596;10.154;2023-06-10T04:08:07;99105.78;;;25.02;54.40
80410;BME280;69746;45.596;10.154;2023-06-10T04:10:33;99099.38;;;25.02;54.20
80410;BME280;69746;45.596;10.154;2023-06-10T04:12:59;99108.56;;;25.02;54.14
80410;BME280;69746;45.596;10.154;2023-06-10T04:15:25;99108.56;;;25.02;54.11
80410;BME280;69746;45.596;10.154;2023-06-10T04:17:51;99115.31;;;25.01;54.04
80410;BME280;69746;45.596;10.154;2023-06-10T04:20:18;99107.75;;;25.02;54.37
80410;BME280;69746;45.596;10.154;2023-06-10T04:22:44;99106.59;;;25.03;54.08
80410;BME280;69746;45.596;10.154;2023-06-10T04:25:09;99109.38;;;25.03;54.07
80410;BME280;69746;45.596;10.154;2023-06-10T04:27:35;99102.97;;;25.02;54.32
80410;BME280;69746;45.596;10.154;2023-06-10T04:30:03;99111.34;;;25.02;54.17
80410;BME280;69746;45.596;10.154;2023-06-10T04:32:29;99101.00;;;25.03;54.37
80410;BME280;69746;45.596;10.154;2023-06-10T04:34:55;99101.81;;;25.03;54.27
80410;BME280;69746;45.596;10.154;2023-06-10T04:37:24;99101.81;;;25.03;54.30
80410;BME280;69746;45.596;10.154;2023-06-10T04:39:50;99094.59;;;25.02;54.21
80410;BME280;69746;45.596;10.154;2023-06-10T04:42:16;99097.03;;;25.04;54.20
80410;BME280;69746;45.596;10.154;2023-06-10T04:44:44;99095.06;;;25.04;54.23
80410;BME280;69746;45.596;10.154;2023-06-10T04:47:11;99101.81;;;25.03;54.27
80410;BME280;69746;45.596;10.154;2023-06-10T04:49:37;99106.59;;;25.03;53.98
80410;BME280;69746;45.596;10.154;2023-06-10T04:52:03;99108.22;;;25.04;54.42
80410;BME280;69746;45.596;10.154;2023-06-10T04:54:30;99107.41;;;25.03;54.04
80410;BME280;69746;45.596;10.154;2023-06-10T04:56:56;99089.38;;;25.01;54.09
80410;BME280;69746;45.596;10.154;2023-06-10T04:59:24;99100.19;;;25.02;54.30
80410;BME280;69746;45.596;10.154;2023-06-10T05:01:52;99104.97;;;25.02;54.49
80410;BME280;69746;45.596;10.154;2023-06-10T05:04:18;99098.56;;;25.01;54.42
80410;BME280;69746;45.596;10.154;2023-06-10T05:06:44;99104.97;;;25.02;54.25
80410;BME280;69746;45.596;10.154;2023-06-10T05:09:10;99102.16;;;25.02;54.24
80410;BME280;69746;45.596;10.154;2023-06-10T05:11:36;99101.00;;;25.03;54.30
80410;BME280;69746;45.596;10.154;2023-06-10T05:14:02;99099.03;;;25.03;54.20
80410;BME280;69746;45.596;10.154;2023-06-10T05:16:28;99102.97;;;25.02;54.21
80410;BME280;69746;45.596;10.154;2023-06-10T05:18:53;99099.38;;;25.02;54.22
80410;BME280;69746;45.596;10.154;2023-06-10T05:21:19;99102.16;;;25.02;54.24
80410;BME280;69746;45.596;10.154;2023-06-10T05:23:48;99101.00;;;25.03;54.48
80410;BME280;69746;45.596;10.154;2023-06-10T05:26:15;99101.00;;;25.03;54.30
80410;BME280;69746;45.596;10.154;2023-06-10T05:28:42;99098.22;;;25.03;54.50
80410;BME280;69746;45.596;10.154;2023-06-10T05:31:08;99101.00;;;25.03;54.28
80410;BME280;69746;45.596;10.154;2023-06-10T05:33:34;99099.38;;;25.02;54.21
80410;BME280;69746;45.596;10.154;2023-06-10T05:36:00;99102.16;;;25.02;54.52
80410;BME280;69746;45.596;10.154;2023-06-10T05:38:25;99104.16;;;25.01;54.20
80410;BME280;69746;45.596;10.154;2023-06-10T05:40:51;99104.16;;;25.01;54.39
80410;BME280;69746;45.596;10.154;2023-06-10T05:43:17;99114.94;;;25.03;54.20
80410;BME280;69746;45.596;10.154;2023-06-10T05:45:43;99102.97;;;25.02;54.13
80410;BME280;69746;45.596;10.154;2023-06-10T05:48:12;99111.34;;;25.02;54.10
80410;BME280;69746;45.596;10.154;2023-06-10T05:50:41;99100.81;;;24.99;54.31
80410;BME280;69746;45.596;10.154;2023-06-10T05:53:08;99108.56;;;25.02;54.28
80410;BME280;69746;45.596;10.154;2023-06-10T05:55:42;99109.38;;;25.03;54.29
80410;BME280;69746;45.596;10.154;2023-06-10T05:58:14;99110.53;;;25.02;54.24
80410;BME280;69746;45.596;10.154;2023-06-10T06:00:42;99108.03;;;25.00;54.14
80410;BME280;69746;45.596;10.154;2023-06-10T06:03:08;99101.00;;;25.03;54.22
80410;BME280;69746;45.596;10.154;2023-06-10T06:05:34;99113.31;;;25.02;54.16
80410;BME280;69746;45.596;10.154;2023-06-10T06:08:01;99110.19;;;25.03;54.23
80410;BME280;69746;45.596;10.154;2023-06-10T06:10:27;99112.16;;;25.03;54.19
80410;BME280;69746;45.596;10.154;2023-06-10T06:12:53;99117.75;;;25.03;54.40
80410;BME280;69746;45.596;10.154;2023-06-10T06:15:20;99114.13;;;25.02;54.13
80410;BME280;69746;45.596;10.154;2023-06-10T06:17:45;99113.31;;;25.02;54.17
80410;BME280;69746;45.596;10.154;2023-06-10T06:20:11;99114.13;;;25.02;54.08
80410;BME280;69746;45.596;10.154;2023-06-10T06:22:38;99116.94;;;25.02;54.20
80410;BME280;69746;45.596;10.154;2023-06-10T06:25:04;99117.75;;;25.03;54.14
80410;BME280;69746;45.596;10.154;2023-06-10T06:27:31;99123.31;;;25.03;54.01
80410;BME280;69746;45.596;10.154;2023-06-10T06:29:57;99120.53;;;25.03;54.07
80410;BME280;69746;45.596;10.154;2023-06-10T06:32:22;99120.53;;;25.03;54.02
80410;BME280;69746;45.596;10.154;2023-06-10T06:34:50;99122.50;;;25.02;54.28
80410;BME280;69746;45.596;10.154;2023-06-10T06:37:25;99121.19;;;24.99;53.96
80410;BME280;69746;45.596;10.154;2023-06-10T06:39:51;99119.19;;;25.00;54.08
80410;BME280;69746;45.596;10.154;2023-06-10T06:42:18;99121.19;;;24.99;54.09
80410;BME280;69746;45.596;10.154;2023-06-10T06:44:44;99116.41;;;25.00;54.09
80410;BME280;69746;45.596;10.154;2023-06-10T06:47:13;99121.19;;;24.99;53.87
80410;BME280;69746;45.596;10.154;2023-06-10T06:49:39;99126.75;;;24.99;53.75
80410;BME280;69746;45.596;10.154;2023-06-10T06:52:05;99120.34;;;24.99;53.63
80410;BME280;69746;45.596;10.154;2023-06-10T06:54:31;99120.34;;;24.99;53.70
80410;BME280;69746;45.596;10.154;2023-06-10T06:56:57;99115.94;;;24.98;53.92
80410;BME280;69746;45.596;10.154;2023-06-10T06:59:23;99117.91;;;24.97;53.74
80410;BME280;69746;45.596;10.154;2023-06-10T07:01:51;99123.50;;;24.97;53.96
80410;BME280;69746;45.596;10.154;2023-06-10T07:04:21;99127.09;;;24.98;53.82
80410;BME280;69746;45.596;10.154;2023-06-10T07:06:50;99128.28;;;24.97;53.62
80410;BME280;69746;45.596;10.154;2023-06-10T07:09:16;99124.56;;;24.93;53.84
80410;BME280;69746;45.596;10.154;2023-06-10T07:11:42;99131.88;;;24.97;53.69
80410;BME280;69746;45.596;10.154;2023-06-10T07:14:09;99134.66;;;24.97;53.79
80410;BME280;69746;45.596;10.154;2023-06-10T07:16:34;99128.28;;;24.97;53.93
80410;BME280;69746;45.596;10.154;2023-06-10T07:19:00;99128.28;;;24.97;53.96
80410;BME280;69746;45.596;10.154;2023-06-10T07:21:26;99128.28;;;24.97;53.73
80410;BME280;69746;45.596;10.154;2023-06-10T07:23:54;99130.25;;;24.96;53.85
80410;BME280;69746;45.596;10.154;2023-06-10T07:26:22;99131.41;;;24.95;53.95
80410;BME280;69746;45.596;10.154;2023-06-10T07:28:50;99131.06;;;24.97;54.00
80410;BME280;69746;45.596;10.154;2023-06-10T07:31:16;99127.81;;;24.95;53.90
80410;BME280;69746;45.596;10.154;2023-06-10T07:33:42;99130.25;;;24.96;54.03
80410;BME280;69746;45.596;10.154;2023-06-10T07:36:09;99123.03;;;24.95;54.02
80410;BME280;69746;45.596;10.154;2023-06-10T07:38:35;99113.50;;;24.96;54.15
80410;BME280;69746;45.596;10.154;2023-06-10T07:41:01;99119.91;;;24.97;53.96
80410;BME280;69746;45.596;10.154;2023-06-10T07:43:27;99113.50;;;24.96;54.02
80410;BME280;69746;45.596;10.154;2023-06-10T07:45:53;99110.72;;;24.96;54.00
80410;BME280;69746;45.596;10.154;2023-06-10T07:48:19;99110.72;;;24.96;54.12
80410;BME280;69746;45.596;10.154;2023-06-10T07:50:45;99103.50;;;24.95;54.30
80410;BME280;69746;45.596;10.154;2023-06-10T07:53:11;99111.53;;;24.97;54.24
80410;BME280;69746;45.596;10.154;2023-06-10T07:55:39;99110.72;;;24.96;54.28
80410;BME280;69746;45.596;10.154;2023-06-10T07:58:05;99111.53;;;24.97;54.52
80410;BME280;69746;45.596;10.154;2023-06-10T08:00:31;99110.72;;;24.96;54.26
80410;BME280;69746;45.596;10.154;2023-06-10T08:02:56;99108.75;;;24.97;54.26
80410;BME280;69746;45.596;10.154;2023-06-10T08:05:22;99103.16;;;24.97;54.02
80410;BME280;69746;45.596;10.154;2023-06-10T08:07:48;99098.38;;;24.97;54.15
80410;BME280;69746;45.596;10.154;2023-06-10T08:10:15;99101.19;;;24.97;54.11
80410;BME280;69746;45.596;10.154;2023-06-10T08:12:41;99101.19;;;24.97;54.22
80410;BME280;69746;45.596;10.154;2023-06-10T08:15:08;99101.53;;;24.96;54.45
80410;BME280;69746;45.596;10.154;2023-06-10T08:17:38;99096.75;;;24.96;54.40
80410;BME280;69746;45.596;10.154;2023-06-10T08:20:05;99097.56;;;24.97;54.49
80410;BME280;69746;45.596;10.154;2023-06-10T08:22:33;99101.19;;;24.97;54.21
80410;BME280;69746;45.596;10.154;2023-06-10T08:24:59;99101.19;;;24.97;54.27
80410;BME280;69746;45.596;10.154;2023-06-10T08:27:24;99103.16;;;24.97;53.99
80410;BME280;69746;45.596;10.154;2023-06-10T08:29:50;99091.19;;;24.96;54.10
80410;BME280;69746;45.596;10.154;2023-06-10T08:32:16;99095.94;;;24.96;54.05
80410;BME280;69746;45.596;10.154;2023-06-10T08:34:42;99100.00;;;24.98;53.98
80410;BME280;69746;45.596;10.154;2023-06-10T08:37:08;99109.56;;;24.97;54.39
80410;BME280;69746;45.596;10.154;2023-06-10T08:39:34;99110.38;;;24.98;54.13
80410;BME280;69746;45.596;10.154;2023-06-10T08:44:35;99112.34;;;24.97;54.24
80410;BME280;69746;45.596;10.154;2023-06-10T08:47:13;99109.56;;;24.97;53.93
80410;BME280;69746;45.596;10.154;2023-06-10T08:49:43;99115.13;;;24.97;54.00
80410;BME280;69746;45.596;10.154;2023-06-10T08:52:15;99111.19;;;24.98;53.91
80410;BME280;69746;45.596;10.154;2023-06-10T08:54:48;99110.38;;;24.98;54.16
80410;BME280;69746;45.596;10.154;2023-06-10T08:57:16;99113.50;;;24.96;54.15
80410;BME280;69746;45.596;10.154;2023-06-10T08:59:46;99099.19;;;24.98;53.98
80410;BME280;69746;45.596;10.154;2023-06-10T09:02:14;99108.38;;;24.98;54.20
80410;BME280;69746;45.596;10.154;2023-06-10T09:04:44;99116.75;;;24.98;53.67
80410;BME280;69746;45.596;10.154;2023-06-10T09:07:10;99115.94;;;24.98;54.04
80410;BME280;69746;45.596;10.154;2023-06-10T09:09:37;99106.66;;;24.94;54.00
80410;BME280;69746;45.596;10.154;2023-06-10T09:12:03;99121.19;;;24.99;53.86
80410;BME280;69746;45.596;10.154;2023-06-10T09:14:30;99123.97;;;24.99;53.94
80410;BME280;69746;45.596;10.154;2023-06-10T09:16:56;99114.78;;;24.99;54.19
80410;BME280;69746;45.596;10.154;2023-06-10T09:19:27;99120.34;;;24.99;54.22
80410;BME280;69746;45.596;10.154;2023-06-10T09:21:54;99123.16;;;24.99;53.88
80410;BME280;69746;45.596;10.154;2023-06-10T09:24:24;99112.81;;;24.99;53.84
80410;BME280;69746;45.596;10.154;2023-06-10T09:26:50;99123.97;;;24.99;53.88
80410;BME280;69746;45.596;10.154;2023-06-10T09:29:17;99115.59;;;24.99;53.88
80410;BME280;69746;45.596;10.154;2023-06-10T09:31:43;99104.44;;;24.99;54.01
80410;BME280;69746;45.596;10.154;2023-06-10T09:34:11;99113.63;;;25.00;53.81
80410;BME280;69746;45.596;10.154;2023-06-10T09:36:39;99111.69;;;25.01;54.06
80410;BME280;69746;45.596;10.154;2023-06-10T09:39:05;99100.81;;;24.99;54.04
80410;BME280;69746;45.596;10.154;2023-06-10T09:41:45;99105.59;;;24.98;53.82
80410;BME280;69746;45.596;10.154;2023-06-10T09:44:18;99106.41;;;24.99;53.87
80410;BME280;69746;45.596;10.154;2023-06-10T09:46:46;99101.19;;;24.97;53.91
80410;BME280;69746;45.596;10.154;2023-06-10T09:49:13;99098.84;;;24.99;53.93
80410;BME280;69746;45.596;10.154;2023-06-10T09:51:49;99102.47;;;25.00;53.96
80410;BME280;69746;45.596;10.154;2023-06-10T09:54:16;99101.63;;;24.99;53.79
80410;BME280;69746;45.596;10.154;2023-06-10T09:56:42;99103.34;;;25.01;53.78
80410;BME280;69746;45.596;10.154;2023-06-10T09:59:08;99105.25;;;25.00;53.85
80410;BME280;69746;45.596;10.154;2023-06-10T10:01:34;99103.34;;;25.01;53.76
80410;BME280;69746;45.596;10.154;2023-06-10T10:04:00;99104.16;;;25.01;54.08
80410;BME280;69746;45.596;10.154;2023-06-10T10:06:28;99106.13;;;25.01;53.86
80410;BME280;69746;45.596;10.154;2023-06-10T10:08:57;99111.69;;;25.01;53.90
80410;BME280;69746;45.596;10.154;2023-06-10T10:11:24;99103.34;;;25.01;53.68
80410;BME280;69746;45.596;10.154;2023-06-10T10:13:52;99099.66;;;25.00;53.89
80410;BME280;69746;45.596;10.154;2023-06-10T10:16:31;99096.06;;;24.99;53.67
80410;BME280;69746;45.596;10.154;2023-06-10T10:19:10;99096.59;;;25.02;53.70
80410;BME280;69746;45.596;10.154;2023-06-10T10:21:49;99092.97;;;25.01;53.56
80410;BME280;69746;45.596;10.154;2023-06-10T10:24:23;99089.38;;;25.01;53.73
80410;BME280;69746;45.596;10.154;2023-06-10T10:26:50;99096.59;;;25.02;53.66
80410;BME280;69746;45.596;10.154;2023-06-10T10:29:23;99094.59;;;25.02;53.63
80410;BME280;69746;45.596;10.154;2023-06-10T10:31:55;99088.22;;;25.02;53.58
80410;BME280;69746;45.596;10.154;2023-06-10T10:34:34;99089.84;;;25.03;53.80
80410;BME280;69746;45.596;10.154;2023-06-10T10:37:01;99089.84;;;25.03;53.71
80410;BME280;69746;45.596;10.154;2023-06-10T10:39:29;99089.03;;;25.02;53.31
80410;BME280;69746;45.596;10.154;2023-06-10T10:41:56;99093.78;;;25.02;53.10
80410;BME280;69746;45.596;10.154;2023-06-10T10:44:23;99083.44;;;25.02;53.32
80410;BME280;69746;45.596;10.154;2023-06-10T10:46:50;99083.44;;;25.02;53.23
80410;BME280;69746;45.596;10.154;2023-06-10T10:49:18;99075.88;;;25.03;53.18
80410;BME280;69746;45.596;10.154;2023-06-10T10:51:58;99075.53;;;25.04;53.10
80410;BME280;69746;45.596;10.154;2023-06-10T10:54:36;99068.31;;;25.03;53.14
80410;BME280;69746;45.596;10.154;2023-06-10T10:59:58;99063.56;;;25.04;52.72
80410;BME280;69746;45.596;10.154;2023-06-10T11:02:36;99061.94;;;25.03;52.99
80410;BME280;69746;45.596;10.154;2023-06-10T11:05:07;99061.13;;;25.02;53.00
80410;BME280;69746;45.596;10.154;2023-06-10T11:07:34;99067.50;;;25.03;52.90
80410;BME280;69746;45.596;10.154;2023-06-10T11:15:12;99069.50;;;25.02;52.78
80410;BME280;69746;45.596;10.154;2023-06-10T11:21:00;99058.78;;;25.04;52.69
80410;BME280;69746;45.596;10.154;2023-06-10T11:23:32;99065.53;;;25.03;52.55
80410;BME280;69746;45.596;10.154;2023-06-10T11:29:04;99068.31;;;25.03;52.46
80410;BME280;69746;45.596;10.154;2023-06-10T11:31:32;99073.91;;;25.03;52.56
80410;BME280;69746;45.596;10.154;2023-06-10T11:34:00;99071.13;;;25.03;52.58
80410;BME280;69746;45.596;10.154;2023-06-10T11:36:29;99066.34;;;25.04;52.83
80410;BME280;69746;45.596;10.154;2023-06-10T11:39:04;99076.34;;;25.05;52.87
80410;BME280;69746;45.596;10.154;2023-06-10T11:41:31;99069.13;;;25.04;52.90
80410;BME280;69746;45.596;10.154;2023-06-10T11:44:13;99066.00;;;25.05;52.71
80410;BME280;69746;45.596;10.154;2023-06-10T11:46:42;99065.19;;;25.05;52.74
80410;BME280;69746;45.596;10.154;2023-06-10T11:49:09;99061.22;;;25.06;52.93
80410;BME280;69746;45.596;10.154;2023-06-10T11:51:37;99062.75;;;25.03;52.80
80410;BME280;69746;45.596;10.154;2023-06-10T11:54:05;99062.41;;;25.05;53.02
80410;BME280;69746;45.596;10.154;2023-06-10T11:56:31;99054.84;;;25.05;53.03
80410;BME280;69746;45.596;10.154;2023-06-10T11:59:03;99044.47;;;25.06;52.83
80410;BME280;69746;45.596;10.154;2023-06-10T12:01:32;99044.47;;;25.06;52.96
80410;BME280;69746;45.596;10.154;2023-06-10T12:04:02;99051.69;;;25.07;52.77
80410;BME280;69746;45.596;10.154;2023-06-10T12:06:44;99030.88;;;25.04;53.15
80410;BME280;69746;45.596;10.154;2023-06-10T12:09:25;99035.31;;;25.05;53.18
80410;BME280;69746;45.596;10.154;2023-06-10T12:11:58;99030.88;;;25.04;53.22
80410;BME280;69746;45.596;10.154;2023-06-10T12:14:50;99028.19;;;25.08;52.94
80410;BME280;69746;45.596;10.154;2023-06-10T12:17:17;99022.16;;;25.06;53.24
80410;BME280;69746;45.596;10.154;2023-06-10T12:19:43;99016.22;;;25.07;53.26
80410;BME280;69746;45.596;10.154;2023-06-10T12:22:09;99018.19;;;25.07;53.18
80410;BME280;69746;45.596;10.154;2023-06-10T12:24:44;99009.47;;;25.08;52.94
80410;BME280;69746;45.596;10.154;2023-06-10T12:27:13;99015.06;;;25.08;53.22
80410;BME280;69746;45.596;10.154;2023-06-10T12:29:39;99012.28;;;25.08;53.08
80410;BME280;69746;45.596;10.154;2023-06-10T12:32:05;99008.31;;;25.09;53.07
80410;BME280;69746;45.596;10.154;2023-06-10T12:34:36;99014.34;;;25.11;53.08
80410;BME280;69746;45.596;10.154;2023-06-10T12:37:05;99021.91;;;25.11;53.29
80410;BME280;69746;45.596;10.154;2023-06-10T12:39:32;99018.66;;;25.09;53.06
80410;BME280;69746;45.596;10.154;2023-06-10T12:41:59;99019.47;;;25.09;52.84
80410;BME280;69746;45.596;10.154;2023-06-10T12:44:29;99022.25;;;25.09;53.00
80410;BME280;69746;45.596;10.154;2023-06-10T12:46:56;99025.06;;;25.09;52.99
80410;BME280;69746;45.596;10.154;2023-06-10T12:49:23;99025.88;;;25.10;53.17
80410;BME280;69746;45.596;10.154;2023-06-10T12:51:49;99028.31;;;25.11;52.88
80410;BME280;69746;45.596;10.154;2023-06-10T12:54:15;99022.38;;;25.13;52.98
80410;BME280;69746;45.596;10.154;2023-06-10T12:56:41;99007.97;;;25.11;52.88
80410;BME280;69746;45.596;10.154;2023-06-10T12:59:07;99011.22;;;25.13;52.74
80410;BME280;69746;45.596;10.154;2023-06-10T13:01:33;99011.22;;;25.13;53.09
80410;BME280;69746;45.596;10.154;2023-06-10T13:03:59;99011.22;;;25.13;53.02
80410;BME280;69746;45.596;10.154;2023-06-10T13:06:26;99000.03;;;25.13;53.03
80410;BME280;69746;45.596;10.154;2023-06-10T13:08:54;99005.31;;;25.14;52.98
80410;BME280;69746;45.596;10.154;2023-06-10T13:11:20;99000.53;;;25.15;53.12
80410;BME280;69746;45.596;10.154;2023-06-10T13:13:46;98989.38;;;25.15;53.24